Time;durP1;ratioP1;P1;durP2;ratioP2;P2;SDS_P1;SDS_P2;PMS_P1;PMS_P2;Temp;Humidity;BMP_temperature;BMP_pressure;BME280_temperature;BME280_humidity;BME280_pressure;Samples;Min_cycle;Max_cycle;Signal;HPM_P1;HPM_P2
2022/06/16 00:00:37;;;;;;;8.43;6.93;;;19.80;99.90;;;;;;5002843;28;20050;-87
2022/06/16 00:03:10;;;;;;;7.38;6.32;;;19.70;99.90;;;;;;5002124;28;20420;-86
2022/06/16 00:05:44;;;;;;;6.50;5.90;;;19.60;99.90;;;;;;4998278;28;20053;-86
2022/06/16 00:08:16;;;;;;;7.75;5.65;;;19.50;99.90;;;;;;5000746;28;20589;-86
2022/06/16 00:13:38;;;;;;;6.65;5.85;;;19.40;99.90;;;;;;4995115;28;20149;-86
2022/06/16 00:16:10;;;;;;;8.30;6.35;;;19.30;99.90;;;;;;5000481;28;20038;-86
2022/06/16 00:18:42;;;;;;;7.17;6.50;;;19.30;99.90;;;;;;5000946;28;20520;-86
2022/06/16 00:21:15;;;;;;;8.02;6.18;;;19.30;99.90;;;;;;4976141;28;20288;-86
2022/06/16 00:23:47;;;;;;;7.10;6.15;;;19.30;99.90;;;;;;5001568;28;20038;-86
2022/06/16 00:26:23;;;;;;;10.65;7.18;;;19.30;99.90;;;;;;4984514;28;20100;-86
2022/06/16 00:28:55;;;;;;;8.45;6.90;;;19.20;99.90;;;;;;4997553;28;20050;-86
2022/06/16 00:31:23;;;;;;;8.70;6.05;;;19.20;99.90;;;;;;4986233;28;20073;-86
2022/06/16 00:33:55;;;;;;;8.95;5.97;;;19.10;99.90;;;;;;4998314;28;20050;-86
2022/06/16 00:36:24;;;;;;;7.45;6.72;;;19.10;99.90;;;;;;4991463;28;20065;-86
2022/06/16 00:38:56;;;;;;;7.93;7.22;;;19.10;99.90;;;;;;4996728;28;20141;-86
2022/06/16 00:41:27;;;;;;;7.00;5.95;;;19.10;99.90;;;;;;5001432;28;20041;-86
2022/06/16 00:44:17;;;;;;;9.48;6.50;;;19.00;99.90;;;;;;5001171;28;20059;-86
2022/06/16 00:46:44;;;;;;;7.93;7.13;;;19.10;99.90;;;;;;5017182;28;20042;-86
2022/06/16 00:49:13;;;;;;;9.90;7.32;;;19.00;99.90;;;;;;5001663;28;20068;-86
2022/06/16 00:51:42;;;;;;;9.98;8.40;;;19.00;99.90;;;;;;5002479;28;20046;-87
2022/06/16 00:54:32;;;;;;;8.52;7.68;;;19.00;99.90;;;;;;5000971;28;20433;-86
2022/06/16 00:57:06;;;;;;;8.15;7.45;;;19.00;99.90;;;;;;4994643;28;20145;-86
2022/06/16 00:59:33;;;;;;;7.10;6.47;;;18.80;99.90;;;;;;5001325;28;20098;-86
2022/06/16 01:01:59;;;;;;;10.50;7.55;;;18.80;99.90;;;;;;4999898;28;20303;-87
2022/06/16 01:07:24;;;;;;;9.50;7.00;;;18.70;99.90;;;;;;5001520;28;20045;-86
2022/06/16 01:09:52;;;;;;;7.20;6.30;;;18.70;99.90;;;;;;4987402;28;20046;-87
2022/06/16 01:15:32;;;;;;;7.00;6.40;;;18.60;99.90;;;;;;4997453;28;20061;-86
2022/06/16 01:18:13;;;;;;;6.57;5.97;;;18.60;99.90;;;;;;5001242;28;20527;-86
2022/06/16 01:20:51;;;;;;;7.88;6.10;;;18.50;99.90;;;;;;4994885;28;20573;-86
2022/06/16 01:23:32;;;;;;;7.53;6.22;;;18.60;99.90;;;;;;4996407;28;20045;-86
2022/06/16 01:26:36;;;;;;;6.65;6.13;;;18.50;99.90;;;;;;4995965;28;20038;-86
2022/06/16 01:29:33;;;;;;;7.80;6.30;;;18.50;99.90;;;;;;4994223;28;20054;-86
2022/06/16 01:32:07;;;;;;;7.03;6.28;;;18.50;99.90;;;;;;5001663;28;20050;-86
2022/06/16 01:34:34;;;;;;;7.78;6.65;;;18.50;99.90;;;;;;4983660;28;20046;-86
2022/06/16 01:37:21;;;;;;;6.72;5.93;;;18.40;99.90;;;;;;5000677;28;20110;-86
2022/06/16 01:40:03;;;;;;;7.40;6.55;;;18.40;99.90;;;;;;5014937;28;20065;-86
2022/06/16 01:42:54;;;;;;;7.25;6.55;;;18.30;99.90;;;;;;4996818;28;20038;-86
2022/06/16 01:45:45;;;;;;;7.45;6.80;;;18.30;99.90;;;;;;4994065;28;20038;-86
2022/06/16 01:48:17;;;;;;;7.50;6.77;;;18.30;99.90;;;;;;4998848;28;20534;-86
2022/06/16 01:50:54;;;;;;;7.60;6.93;;;18.30;99.90;;;;;;5017279;28;20064;-87
2022/06/16 01:53:44;;;;;;;8.85;7.15;;;18.40;99.90;;;;;;5015801;28;20511;-86
2022/06/16 01:56:21;;;;;;;8.05;7.18;;;18.30;99.90;;;;;;4990784;28;20057;-86
2022/06/16 01:58:59;;;;;;;8.55;7.63;;;18.30;99.90;;;;;;4986137;28;20417;-86
2022/06/16 02:01:33;;;;;;;8.02;6.88;;;18.20;99.90;;;;;;5019746;28;20046;-86
2022/06/16 02:04:09;;;;;;;8.57;7.68;;;18.10;99.90;;;;;;4998273;28;20100;-86
2022/06/16 02:06:45;;;;;;;8.38;7.07;;;18.00;99.90;;;;;;5003103;28;20125;-86
2022/06/16 02:09:25;;;;;;;7.72;7.03;;;17.90;99.90;;;;;;5003954;28;20130;-86
2022/06/16 02:11:55;;;;;;;8.25;7.07;;;17.90;99.90;;;;;;5013051;28;20076;-86
2022/06/16 02:14:45;;;;;;;8.90;7.07;;;17.80;99.90;;;;;;5003189;28;20069;-85
2022/06/16 02:17:24;;;;;;;7.57;6.88;;;17.80;99.90;;;;;;4987256;28;20045;-86
2022/06/16 02:19:51;;;;;;;7.50;6.70;;;17.80;99.90;;;;;;4988466;28;20058;-86
2022/06/16 02:22:18;;;;;;;7.53;6.82;;;17.70;99.90;;;;;;4987543;28;20069;-85
2022/06/16 02:24:47;;;;;;;7.72;6.93;;;17.70;99.90;;;;;;5002004;28;20034;-86
2022/06/16 02:27:20;;;;;;;9.73;6.72;;;17.70;99.90;;;;;;5003748;28;20064;-86
2022/06/16 02:29:49;;;;;;;13.02;7.80;;;17.70;99.90;;;;;;5003333;28;20056;-86
2022/06/16 02:32:43;;;;;;;7.13;6.53;;;17.60;99.90;;;;;;4997786;28;20042;-86
2022/06/16 02:35:21;;;;;;;7.18;6.47;;;17.70;99.90;;;;;;4995501;28;20104;-86
2022/06/16 02:38:01;;;;;;;6.85;6.25;;;17.70;99.90;;;;;;5002166;28;20460;-86
2022/06/16 02:40:58;;;;;;;9.40;7.13;;;17.60;99.90;;;;;;5001003;28;20038;-86
2022/06/16 02:43:37;;;;;;;6.28;5.75;;;17.60;99.90;;;;;;4998470;28;20072;-86
2022/06/16 02:46:14;;;;;;;7.30;6.28;;;17.50;99.90;;;;;;5002600;28;20049;-87
2022/06/16 02:48:59;;;;;;;6.40;5.75;;;17.50;99.90;;;;;;5004019;28;20038;-86
2022/06/16 02:51:56;;;;;;;7.00;6.30;;;17.50;99.90;;;;;;5018658;28;20046;-86
2022/06/16 02:54:28;;;;;;;8.93;6.13;;;17.50;99.90;;;;;;4999780;28;20108;-86
2022/06/16 02:57:11;;;;;;;7.32;6.60;;;17.40;99.90;;;;;;5002557;28;20045;-86
2022/06/16 02:59:57;;;;;;;6.43;5.82;;;17.40;99.90;;;;;;4996612;28;20050;-86
2022/06/16 03:02:34;;;;;;;6.43;5.88;;;17.30;99.90;;;;;;5009986;28;20046;-86
2022/06/16 03:05:05;;;;;;;7.38;6.50;;;17.20;99.90;;;;;;5002045;28;20058;-86
2022/06/16 03:07:35;;;;;;;10.32;6.70;;;17.20;99.90;;;;;;5003026;28;20069;-86
2022/06/16 03:10:50;;;;;;;6.55;6.00;;;17.20;99.90;;;;;;5016279;28;20050;-87
2022/06/16 03:13:09;;;;;;;6.65;6.05;;;17.10;99.90;;;;;;5016411;28;20468;-86
2022/06/16 03:15:41;;;;;;;10.20;6.25;;;17.10;99.90;;;;;;5001788;28;20093;-86
2022/06/16 03:18:08;;;;;;;9.75;6.45;;;17.10;99.90;;;;;;5003180;28;20125;-86
2022/06/16 03:20:39;;;;;;;10.40;6.32;;;17.00;99.90;;;;;;5003383;28;20059;-86
2022/06/16 03:23:11;;;;;;;8.50;5.82;;;17.00;99.90;;;;;;5000256;28;20042;-87
2022/06/16 03:25:46;;;;;;;8.00;5.70;;;17.00;99.90;;;;;;4980712;28;20092;-86
2022/06/16 03:28:15;;;;;;;7.72;6.15;;;17.00;99.90;;;;;;4998267;28;20038;-86
2022/06/16 03:30:43;;;;;;;6.60;5.68;;;17.00;99.90;;;;;;5017029;28;20050;-86
2022/06/16 03:33:13;;;;;;;6.07;5.47;;;17.10;99.90;;;;;;4996593;28;20108;-86
2022/06/16 03:35:43;;;;;;;6.90;6.05;;;17.10;99.90;;;;;;5002769;28;20056;-86
2022/06/16 03:41:02;;;;;;;8.88;6.03;;;17.10;99.90;;;;;;5003018;28;20038;-86
2022/06/16 03:43:29;;;;;;;5.93;5.38;;;17.10;99.90;;;;;;4986525;28;20113;-86
2022/06/16 03:46:04;;;;;;;6.28;5.68;;;17.10;99.90;;;;;;5001359;28;20065;-86
2022/06/16 03:48:37;;;;;;;;;;;17.00;99.90;;;;;;5004107;28;20076;-86
2022/06/16 03:51:11;;;;;;;8.43;6.15;;;17.10;99.90;;;;;;5018186;28;19988;-86
2022/06/16 03:53:41;;;;;;;8.25;7.40;;;17.10;99.90;;;;;;5002874;28;20529;-86
2022/06/16 03:56:09;;;;;;;17.35;9.93;;;17.10;99.90;;;;;;4982034;28;20520;-86
2022/06/16 03:58:36;;;;;;;16.77;9.77;;;17.20;99.90;;;;;;5000296;28;20136;-86
2022/06/16 04:01:08;;;;;;;12.88;9.27;;;17.10;99.90;;;;;;5003151;28;20104;-86
2022/06/16 04:06:20;;;;;;;12.18;8.82;;;17.10;99.90;;;;;;5001621;28;20045;-87
2022/06/16 04:08:52;;;;;;;11.23;8.43;;;17.00;99.90;;;;;;5002828;28;20066;-85
2022/06/16 04:11:27;;;;;;;18.73;9.93;;;16.90;99.90;;;;;;5002199;28;20041;-87
2022/06/16 04:14:08;;;;;;;20.40;11.05;;;16.90;99.90;;;;;;5002895;28;20409;-86
2022/06/16 04:17:02;;;;;;;16.92;9.82;;;16.90;99.90;;;;;;4987370;28;20048;-86
2022/06/16 04:20:11;;;;;;;19.27;10.10;;;16.90;99.90;;;;;;5002674;28;20045;-86
2022/06/16 04:22:48;;;;;;;18.50;10.43;;;17.00;99.90;;;;;;5001030;28;20042;-83
2022/06/16 04:25:20;;;;;;;11.75;8.77;;;17.00;99.90;;;;;;5016301;28;20038;-86
2022/06/16 04:27:48;;;;;;;11.00;8.40;;;17.00;99.90;;;;;;4990675;28;20045;-87
2022/06/16 04:30:21;;;;;;;9.55;7.60;;;17.10;99.90;;;;;;5003404;28;20096;-86
2022/06/16 04:32:54;;;;;;;10.32;8.18;;;17.10;99.90;;;;;;4999619;28;20042;-86
2022/06/16 04:35:21;;;;;;;13.60;8.75;;;17.20;99.90;;;;;;5001909;28;20096;-86
2022/06/16 04:37:55;;;;;;;12.13;8.38;;;17.20;99.90;;;;;;5002285;28;20057;-86
2022/06/16 04:40:27;;;;;;;;;;;17.30;99.90;;;;;;5002598;28;20053;-86
2022/06/16 04:43:01;;;;;;;20.33;10.68;;;17.30;99.90;;;;;;5002589;28;19979;-86
2022/06/16 04:45:34;;;;;;;20.27;11.95;;;17.40;99.90;;;;;;5001382;28;20102;-86
2022/06/16 04:48:01;;;;;;;18.13;12.02;;;17.40;99.90;;;;;;5002441;28;20412;-86
2022/06/16 04:50:32;;;;;;;16.67;11.55;;;17.50;99.90;;;;;;4986734;28;20096;-86
2022/06/16 04:53:05;;;;;;;19.98;11.90;;;17.60;99.90;;;;;;5001467;28;20209;-86
2022/06/16 04:55:59;;;;;;;18.98;13.57;;;17.70;99.90;;;;;;5016784;28;20038;-86
2022/06/16 04:58:42;;;;;;;21.67;13.50;;;17.80;99.90;;;;;;4998929;28;20076;-87
2022/06/16 05:01:32;;;;;;;19.60;11.07;;;17.80;99.90;;;;;;5005164;28;20212;-86
2022/06/16 05:04:08;;;;;;;18.77;12.82;;;17.90;99.90;;;;;;5016793;28;20069;-86
2022/06/16 05:07:07;;;;;;;11.15;7.97;;;18.00;99.90;;;;;;4998906;28;20038;-86
2022/06/16 05:09:57;;;;;;;11.40;7.90;;;18.10;99.90;;;;;;5002395;28;20053;-87
2022/06/16 05:12:38;;;;;;;11.18;8.25;;;18.20;99.90;;;;;;5002603;28;20564;-86
2022/06/16 05:15:10;;;;;;;13.85;7.75;;;18.40;99.90;;;;;;4998618;28;20073;-86
2022/06/16 05:18:08;;;;;;;12.05;8.45;;;18.60;99.90;;;;;;4989104;28;20041;-86
2022/06/16 05:21:10;;;;;;;11.38;8.80;;;18.70;99.90;;;;;;4998126;28;20046;-86
2022/06/16 05:24:08;;;;;;;10.93;8.60;;;18.80;99.90;;;;;;5016993;28;20417;-86
2022/06/16 05:26:54;;;;;;;9.95;8.70;;;18.80;99.90;;;;;;5018679;28;20053;-86
2022/06/16 05:29:38;;;;;;;10.18;7.57;;;18.90;99.90;;;;;;4984711;28;20052;-86
2022/06/16 05:32:17;;;;;;;11.80;7.97;;;18.90;99.90;;;;;;5003569;28;20054;-86
2022/06/16 05:35:10;;;;;;;10.30;9.40;;;18.90;99.90;;;;;;5006430;28;20046;-86
2022/06/16 05:38:11;;;;;;;10.15;7.13;;;19.00;99.90;;;;;;4948251;28;20070;-86
2022/06/16 05:41:14;;;;;;;9.20;7.00;;;19.20;99.90;;;;;;5007863;28;20064;-86
2022/06/16 05:44:12;;;;;;;9.38;6.20;;;19.30;99.90;;;;;;5011329;28;20046;-86
2022/06/16 05:46:57;;;;;;;8.05;6.47;;;19.50;99.90;;;;;;5006954;28;20053;-86
2022/06/16 05:49:38;;;;;;;7.22;6.53;;;19.60;99.90;;;;;;5004924;28;20042;-86
2022/06/16 05:52:10;;;;;;;10.35;6.13;;;19.80;99.90;;;;;;5005055;28;20084;-87
2022/06/16 05:54:38;;;;;;;8.73;5.68;;;19.90;99.90;;;;;;5003631;28;20121;-86
2022/06/16 05:57:07;;;;;;;7.30;5.13;;;20.10;99.90;;;;;;4989762;28;20048;-87
2022/06/16 05:59:37;;;;;;;11.48;5.45;;;20.20;99.90;;;;;;5004956;28;20078;-86
2022/06/16 06:02:07;;;;;;;9.80;5.57;;;20.40;99.90;;;;;;5012680;28;20046;-86
2022/06/16 06:04:33;;;;;;;8.88;5.30;;;20.60;99.90;;;;;;4987776;28;20050;-86
2022/06/16 06:07:05;;;;;;;10.30;5.75;;;20.70;99.90;;;;;;5003707;28;20049;-86
2022/06/16 06:18:16;;;;;;;5.82;5.13;;;20.90;99.90;;;;;;4997701;28;20046;-87
2022/06/16 06:20:49;;;;;;;8.05;4.80;;;20.90;99.90;;;;;;4989821;28;20042;-87
2022/06/16 06:23:16;;;;;;;12.75;6.95;;;20.90;99.90;;;;;;4987421;28;20042;-86
2022/06/16 06:25:43;;;;;;;7.70;4.78;;;20.90;99.90;;;;;;5004224;28;20072;-86
2022/06/16 06:28:15;;;;;;;8.27;5.20;;;20.90;99.90;;;;;;5003625;28;20044;-87
2022/06/16 06:30:47;;;;;;;8.07;6.00;;;20.80;99.90;;;;;;4989142;28;20081;-86
2022/06/16 06:33:14;;;;;;;6.88;5.63;;;20.80;99.90;;;;;;5018043;28;20049;-86
2022/06/16 06:35:41;;;;;;;7.30;4.88;;;20.80;99.90;;;;;;5003253;28;20336;-86
2022/06/16 06:38:08;;;;;;;8.10;5.70;;;20.80;99.90;;;;;;5005114;28;20110;-86
2022/06/16 06:40:40;;;;;;;9.13;5.32;;;20.80;99.90;;;;;;5004646;28;20034;-87
2022/06/16 06:43:07;;;;;;;7.68;5.60;;;20.80;99.90;;;;;;5002656;28;20046;-87
2022/06/16 06:45:34;;;;;;;8.07;5.72;;;20.80;99.90;;;;;;4997559;28;20127;-88
2022/06/16 06:48:03;;;;;;;8.88;5.70;;;20.80;99.90;;;;;;5003772;28;20111;-86
2022/06/16 06:50:36;;;;;;;;;;;20.80;99.90;;;;;;5005980;28;20048;-87
2022/06/16 06:53:09;;;;;;;6.68;5.97;;;20.80;99.90;;;;;;5002164;28;20459;-86
2022/06/16 06:55:40;;;;;;;7.78;6.30;;;20.80;99.90;;;;;;5003847;28;20056;-86
2022/06/16 06:58:19;;;;;;;8.77;5.32;;;20.90;99.90;;;;;;5004332;28;20059;-86
2022/06/16 07:00:53;;;;;;;10.60;5.63;;;20.90;99.90;;;;;;5000653;28;20089;-86
2022/06/16 07:03:25;;;;;;;10.02;5.47;;;21.00;99.90;;;;;;4986066;28;20052;-87
2022/06/16 07:05:52;;;;;;;8.35;4.85;;;21.10;99.90;;;;;;5000119;28;20153;-86
2022/06/16 07:08:20;;;;;;;6.13;5.15;;;21.20;99.90;;;;;;5004577;28;20129;-86
2022/06/16 07:10:47;;;;;;;7.20;5.10;;;21.40;99.90;;;;;;5000610;28;20061;-87
2022/06/16 07:13:14;;;;;;;7.85;4.78;;;21.50;99.90;;;;;;5002413;28;20046;-87
2022/06/16 07:15:40;;;;;;;7.47;5.45;;;21.70;99.90;;;;;;5003234;28;20073;-86
2022/06/16 07:18:12;;;;;;;8.95;6.22;;;21.80;99.90;;;;;;5003163;28;20058;-86
2022/06/16 07:20:39;;;;;;;10.10;4.97;;;22.00;99.90;;;;;;4988044;28;20141;-86
2022/06/16 07:23:06;;;;;;;8.50;5.60;;;22.10;99.90;;;;;;5003960;28;20052;-87
2022/06/16 07:25:37;;;;;;;7.85;5.38;;;22.20;99.90;;;;;;5000695;28;20038;-86
2022/06/16 07:28:04;;;;;;;7.32;5.18;;;22.40;99.90;;;;;;5003541;28;20042;-86
2022/06/16 07:30:31;;;;;;;8.23;5.90;;;22.50;99.90;;;;;;5004052;28;20057;-86
2022/06/16 07:32:59;;;;;;;7.05;4.70;;;22.70;99.90;;;;;;5003309;28;20597;-86
2022/06/16 07:35:31;;;;;;;9.98;5.32;;;22.90;99.90;;;;;;5002797;28;20060;-87
2022/06/16 07:38:02;;;;;;;6.72;5.25;;;23.10;99.90;;;;;;5004031;28;20126;-86
2022/06/16 07:40:34;;;;;;;5.63;4.40;;;23.30;99.90;;;;;;4988235;28;20042;-86
2022/06/16 07:43:06;;;;;;;9.32;5.50;;;23.50;99.90;;;;;;5002487;28;20501;-86
2022/06/16 07:45:35;;;;;;;7.13;4.40;;;23.80;99.90;;;;;;5002766;28;20052;-86
2022/06/16 07:48:05;;;;;;;8.23;5.03;;;24.00;99.90;;;;;;5001376;28;20129;-86
2022/06/16 07:50:37;;;;;;;7.25;5.35;;;24.00;99.90;;;;;;5012210;28;20088;-86
2022/06/16 07:53:05;;;;;;;6.22;4.78;;;23.90;99.90;;;;;;5001095;28;20445;-87
2022/06/16 07:55:37;;;;;;;9.13;5.03;;;23.90;99.90;;;;;;5017888;28;20046;-86
2022/06/16 07:58:04;;;;;;;8.85;5.00;;;24.00;99.90;;;;;;5003089;28;20073;-86
2022/06/16 08:00:36;;;;;;;9.20;7.40;;;23.90;99.90;;;;;;5020221;28;20041;-87
2022/06/16 08:03:02;;;;;;;8.95;5.28;;;23.90;99.90;;;;;;5001335;28;20044;-86
2022/06/16 08:05:30;;;;;;;9.07;4.88;;;24.00;99.90;;;;;;4981046;28;20048;-87
2022/06/16 08:07:57;;;;;;;8.05;4.45;;;24.00;99.90;;;;;;5003262;28;20069;-86
2022/06/16 08:10:28;;;;;;;6.93;4.38;;;24.20;99.90;;;;;;5003595;28;20141;-87
2022/06/16 08:12:56;;;;;;;9.73;4.65;;;24.20;99.90;;;;;;5000951;28;20497;-86
2022/06/16 08:15:24;;;;;;;7.32;4.80;;;24.20;99.90;;;;;;5016667;28;20050;-86
2022/06/16 08:17:53;;;;;;;10.27;4.97;;;24.20;99.90;;;;;;5003424;28;20118;-86
2022/06/16 08:20:25;;;;;;;8.88;4.82;;;24.30;99.90;;;;;;5003863;28;20142;-86
2022/06/16 08:22:52;;;;;;;9.70;5.15;;;24.40;99.90;;;;;;5002936;28;20280;-84
2022/06/16 08:25:19;;;;;;;9.70;4.35;;;24.50;99.90;;;;;;5002055;28;20465;-87
2022/06/16 08:27:49;;;;;;;5.05;4.18;;;24.50;99.90;;;;;;5002774;28;20050;-86
2022/06/16 08:30:18;;;;;;;6.20;4.80;;;24.50;99.90;;;;;;5003519;28;20081;-86
2022/06/16 08:32:45;;;;;;;6.43;4.28;;;24.60;99.90;;;;;;5002588;28;20052;-83
2022/06/16 08:35:17;;;;;;;8.05;4.18;;;24.60;99.90;;;;;;5002195;28;20057;-86
2022/06/16 08:37:49;;;;;;;6.55;4.32;;;24.80;99.90;;;;;;5003815;28;20433;-86
2022/06/16 08:40:17;;;;;;;6.57;4.30;;;24.80;99.90;;;;;;4986218;28;20050;-87
2022/06/16 08:43:06;;;;;;;5.78;3.53;;;24.90;99.90;;;;;;5002756;28;20489;-87
2022/06/16 08:45:40;;;;;;;6.57;3.50;;;24.90;99.90;;;;;;4997102;28;20505;-86
2022/06/16 08:48:58;;;;;;;6.22;3.85;;;25.00;99.90;;;;;;5003222;28;20053;-86
2022/06/16 08:51:48;;;;;;;6.55;3.63;;;25.20;99.90;;;;;;4959668;29;20492;-86
2022/06/16 08:54:46;;;;;;;5.32;3.15;;;25.30;99.90;;;;;;4927182;29;20051;-86
2022/06/16 08:57:13;;;;;;;5.47;3.67;;;25.50;99.90;;;;;;4994427;28;20069;-87
2022/06/16 08:59:44;;;;;;;5.25;3.58;;;25.60;99.90;;;;;;5003214;28;20056;-86
2022/06/16 09:02:30;;;;;;;6.85;3.72;;;25.60;99.90;;;;;;5003367;28;20042;-86
2022/06/16 09:05:11;;;;;;;5.68;3.33;;;25.60;99.90;;;;;;5013559;28;20057;-86
2022/06/16 09:07:51;;;;;;;7.53;4.05;;;25.30;99.90;;;;;;4999087;28;20074;-86
2022/06/16 09:10:44;;;;;;;6.22;3.70;;;25.10;99.90;;;;;;4993717;28;20064;-86
2022/06/16 09:13:27;;;;;;;8.32;3.45;;;25.00;99.90;;;;;;4985878;28;20060;-87
2022/06/16 09:16:19;;;;;;;7.13;4.22;;;25.00;99.90;;;;;;4999607;28;20136;-86
2022/06/16 09:18:51;;;;;;;6.72;4.00;;;25.00;99.90;;;;;;5002399;28;20129;-87
2022/06/16 09:21:34;;;;;;;5.30;3.75;;;25.10;99.90;;;;;;5002927;28;20053;-87
2022/06/16 09:24:20;;;;;;;8.15;4.25;;;25.20;99.90;;;;;;5001593;28;20394;-86
2022/06/16 09:26:57;;;;;;;5.65;3.90;;;25.40;99.90;;;;;;5001565;28;20128;-86
2022/06/16 09:29:49;;;;;;;5.50;3.70;;;25.60;99.90;;;;;;5000119;28;20117;-87
2022/06/16 09:32:26;;;;;;;8.82;4.65;;;25.80;99.90;;;;;;4986889;28;20490;-86
2022/06/16 09:35:12;;;;;;;5.70;3.90;;;25.90;99.90;;;;;;5013563;28;20064;-87
2022/06/16 09:37:48;;;;;;;5.82;4.13;;;25.90;99.90;;;;;;5000317;28;20052;-86
2022/06/16 09:40:23;;;;;;;7.30;4.85;;;25.90;99.90;;;;;;5001733;28;20118;-86
2022/06/16 09:43:05;;;;;;;4.93;4.20;;;26.00;99.90;;;;;;4992266;28;20062;-87
2022/06/16 09:45:44;;;;;;;6.03;4.75;;;25.80;99.90;;;;;;4981108;28;20406;-86
2022/06/16 09:48:14;;;;;;;7.65;4.43;;;25.60;99.90;;;;;;5001762;28;20092;-86
2022/06/16 09:51:15;;;;;;;7.78;4.90;;;25.60;99.90;;;;;;5001423;28;20046;-86
2022/06/16 09:53:49;;;;;;;4.93;4.47;;;25.90;99.90;;;;;;5014972;28;20153;-86
2022/06/16 09:56:31;;;;;;;4.97;4.50;;;26.00;99.90;;;;;;4988749;28;20038;-87
2022/06/16 09:59:08;;;;;;;8.15;5.03;;;26.20;99.90;;;;;;4981559;28;20066;-86
2022/06/16 10:01:44;;;;;;;8.32;4.85;;;26.20;99.90;;;;;;5001277;28;20048;-87
2022/06/16 10:04:11;;;;;;;7.22;4.45;;;26.10;99.90;;;;;;4996845;28;20104;-86
2022/06/16 10:06:56;;;;;;;7.43;4.18;;;25.90;99.90;;;;;;4998680;28;20045;-86
2022/06/16 10:09:30;;;;;;;5.00;4.57;;;25.90;99.90;;;;;;4998598;28;20105;-87
2022/06/16 10:11:57;;;;;;;6.93;5.05;;;26.00;99.90;;;;;;5001342;28;20589;-86
2022/06/16 10:14:31;;;;;;;7.35;3.85;;;26.10;99.90;;;;;;4983089;28;20046;-86
2022/06/16 10:17:04;;;;;;;5.18;4.65;;;26.30;99.80;;;;;;4996459;28;20072;-87
2022/06/16 10:19:39;;;;;;;6.10;4.53;;;26.50;99.60;;;;;;5000274;28;20050;-85
2022/06/16 10:22:18;;;;;;;5.55;4.53;;;26.60;99.60;;;;;;5002933;28;20048;-86
2022/06/16 10:25:02;;;;;;;4.75;3.80;;;26.70;98.10;;;;;;4982651;28;20048;-86
2022/06/16 10:27:44;;;;;;;7.35;3.60;;;26.90;95.00;;;;;;5000089;28;20046;-86
2022/06/16 10:30:32;;;;;;;5.07;4.07;;;27.10;93.20;;;;;;5001477;28;20390;-87
2022/06/16 10:33:05;;;;;;;5.35;3.75;;;27.40;92.30;;;;;;4987700;28;20053;-86
2022/06/16 10:35:43;;;;;;;4.50;3.80;;;27.40;91.70;;;;;;4999500;28;20038;-86
2022/06/16 10:38:11;;;;;;;5.90;3.70;;;27.40;90.80;;;;;;5002633;28;20494;-86
2022/06/16 10:40:41;;;;;;;4.22;3.83;;;27.30;88.40;;;;;;5003531;28;20109;-86
2022/06/16 10:43:16;;;;;;;5.30;3.70;;;27.40;89.10;;;;;;5000892;28;20075;-87
2022/06/16 10:45:57;;;;;;;4.60;4.20;;;27.30;90.50;;;;;;5019978;28;20044;-87
2022/06/16 10:48:35;;;;;;;4.28;3.88;;;27.20;89.50;;;;;;5020200;28;20040;-86
2022/06/16 10:51:25;;;;;;;9.00;3.90;;;27.10;89.20;;;;;;5013490;28;20062;-86
2022/06/16 10:54:30;;;;;;;4.18;3.75;;;27.00;89.80;;;;;;4998607;28;20113;-87
2022/06/16 10:57:18;;;;;;;4.70;4.30;;;27.10;88.80;;;;;;4986544;28;20492;-87
2022/06/16 10:59:47;;;;;;;;;;;27.30;90.10;;;;;;5002509;28;20140;-86
2022/06/16 11:02:22;;;;;;;7.55;5.05;;;27.40;90.50;;;;;;5001291;28;19925;-86
2022/06/16 11:04:55;;;;;;;5.22;4.40;;;27.70;90.70;;;;;;5001248;28;20129;-87
2022/06/16 11:07:23;;;;;;;4.55;4.13;;;27.70;89.80;;;;;;5002684;28;20080;-86
2022/06/16 11:10:00;;;;;;;;;;;27.80;89.90;;;;;;5019823;28;20041;-87
2022/06/16 11:12:29;;;;;;;5.97;4.10;;;27.90;88.50;;;;;;4998710;28;19921;-86
2022/06/16 11:15:14;;;;;;;8.38;4.47;;;28.00;80.10;;;;;;4984639;28;20050;-87
2022/06/16 11:17:46;;;;;;;3.50;3.20;;;28.10;84.20;;;;;;5002068;28;20129;-87
2022/06/16 11:20:23;;;;;;;6.65;4.45;;;28.30;77.90;;;;;;4999550;28;20057;-87
2022/06/16 11:22:57;;;;;;;5.47;3.65;;;28.50;76.40;;;;;;5002242;28;20052;-86
2022/06/16 11:25:32;;;;;;;6.50;3.47;;;28.60;71.50;;;;;;5000430;28;20045;-86
2022/06/16 11:27:59;;;;;;;7.20;4.93;;;28.30;69.10;;;;;;5000116;28;20104;-87
2022/06/16 11:30:52;;;;;;;5.65;3.90;;;28.40;70.10;;;;;;4993421;28;20034;-86
2022/06/16 11:36:54;;;;;;;9.13;3.42;;;28.80;70.60;;;;;;5016128;28;20034;-86
2022/06/16 11:39:44;;;;;;;4.70;3.05;;;28.90;66.30;;;;;;5009069;28;20125;-86
2022/06/16 11:42:23;;;;;;;7.38;3.53;;;28.80;69.10;;;;;;5010821;28;20081;-85
2022/06/16 11:45:23;;;;;;;5.72;3.63;;;28.80;66.70;;;;;;5015772;28;20042;-86
2022/06/16 11:48:41;;;;;;;6.22;2.83;;;28.80;66.40;;;;;;5014611;28;20037;-86
2022/06/16 11:51:22;;;;;;;3.70;3.03;;;28.90;65.10;;;;;;4988598;28;20049;-86
2022/06/16 11:54:16;;;;;;;4.40;3.30;;;28.80;64.60;;;;;;4990816;28;20069;-86
2022/06/16 11:56:57;;;;;;;5.88;3.53;;;28.60;65.50;;;;;;4985650;28;20045;-86
2022/06/16 11:59:23;;;;;;;6.60;3.10;;;28.40;67.40;;;;;;5013178;28;20065;-86
2022/06/16 12:02:04;;;;;;;4.13;3.10;;;28.50;65.90;;;;;;5000339;28;20053;-86
2022/06/16 12:04:39;;;;;;;6.38;3.20;;;28.50;65.10;;;;;;5012540;28;20064;-87
2022/06/16 12:07:41;;;;;;;3.53;3.22;;;28.40;64.80;;;;;;5000656;28;20048;-86
2022/06/16 12:10:17;;;;;;;8.63;3.25;;;28.20;63.20;;;;;;5000063;28;20132;-87
2022/06/16 12:13:13;;;;;;;7.68;3.28;;;28.20;65.60;;;;;;5000932;28;20414;-85
2022/06/16 12:15:58;;;;;;;4.78;3.30;;;28.30;65.90;;;;;;5016484;28;20456;-87
2022/06/16 12:18:30;;;;;;;4.00;3.25;;;28.30;65.70;;;;;;5000708;28;20073;-87
2022/06/16 12:21:19;;;;;;;3.90;3.30;;;28.40;63.90;;;;;;5015463;28;20087;-86
2022/06/16 12:24:42;;;;;;;7.70;3.40;;;28.50;64.80;;;;;;5008050;28;20054;-86
2022/06/16 12:27:23;;;;;;;6.43;3.25;;;28.70;66.30;;;;;;4983901;28;20074;-86
2022/06/16 12:30:20;;;;;;;5.60;2.97;;;28.50;63.90;;;;;;5006186;28;20681;-86
2022/06/16 12:33:07;;;;;;;9.45;3.38;;;28.30;62.90;;;;;;4997606;28;20053;-86
2022/06/16 12:36:00;;;;;;;4.82;3.08;;;28.10;63.90;;;;;;5013870;28;20045;-86
2022/06/16 12:38:36;;;;;;;5.32;3.95;;;27.90;62.70;;;;;;4998164;28;20400;-86
2022/06/16 12:41:08;;;;;;;3.55;3.10;;;28.00;63.60;;;;;;5014879;28;20515;-87
2022/06/16 12:43:58;;;;;;;4.93;2.97;;;28.20;64.20;;;;;;4982768;28;20048;-89
2022/06/16 12:46:42;;;;;;;6.50;3.30;;;28.30;63.40;;;;;;4984641;28;20049;-87
2022/06/16 12:49:17;;;;;;;5.00;2.80;;;28.40;64.20;;;;;;4998705;28;20137;-86
2022/06/16 12:51:53;;;;;;;7.90;2.95;;;28.40;63.30;;;;;;4996384;28;20144;-87
2022/06/16 12:54:29;;;;;;;7.18;3.45;;;28.60;64.70;;;;;;4999983;28;20049;-86
2022/06/16 12:57:09;;;;;;;3.33;3.03;;;28.80;62.50;;;;;;4978551;28;20051;-86
2022/06/16 12:59:36;;;;;;;5.85;3.08;;;28.80;61.10;;;;;;4983659;28;20517;-86
2022/06/16 13:02:05;;;;;;;8.40;3.45;;;28.80;60.20;;;;;;4983860;28;20409;-86
2022/06/16 13:04:34;;;;;;;8.55;3.15;;;28.70;58.80;;;;;;4998952;28;20136;-86
2022/06/16 13:07:12;;;;;;;4.50;3.10;;;28.90;60.40;;;;;;4999263;28;20057;-86
2022/06/16 13:09:44;;;;;;;5.32;3.00;;;29.10;59.40;;;;;;4999637;28;20536;-86
2022/06/16 13:12:30;;;;;;;2.95;2.67;;;29.20;59.60;;;;;;5000180;28;20046;-87
2022/06/16 13:15:33;;;;;;;3.58;2.78;;;29.20;57.30;;;;;;5012213;28;20052;-86
2022/06/16 13:18:06;;;;;;;6.38;2.55;;;29.30;56.20;;;;;;4975604;28;20052;-86
2022/06/16 13:20:43;;;;;;;5.93;2.80;;;29.30;54.00;;;;;;4997074;28;20043;-86
2022/06/16 13:23:30;;;;;;;3.40;3.10;;;29.30;54.50;;;;;;5012068;28;20498;-86
2022/06/16 13:26:20;;;;;;;5.00;2.60;;;29.30;54.90;;;;;;4991510;28;20033;-86
2022/06/16 13:29:07;;;;;;;5.22;2.70;;;29.40;52.50;;;;;;4999162;28;20042;-87
2022/06/16 13:31:47;;;;;;;4.03;2.38;;;29.50;51.60;;;;;;4989236;28;20046;-86
2022/06/16 13:34:41;;;;;;;6.90;2.45;;;29.60;50.50;;;;;;4999106;28;20140;-87
2022/06/16 13:37:08;;;;;;;3.92;2.70;;;29.50;50.40;;;;;;4990606;28;20145;-85
2022/06/16 13:40:05;;;;;;;3.63;2.58;;;29.60;50.90;;;;;;4984065;28;20485;-86
2022/06/16 13:42:53;;;;;;;4.07;2.70;;;29.50;52.50;;;;;;4983964;28;20050;-86
2022/06/16 13:45:28;;;;;;;5.30;3.10;;;29.50;53.00;;;;;;5012481;28;20048;-86
2022/06/16 13:48:06;;;;;;;5.30;2.88;;;29.50;54.10;;;;;;4989850;28;20034;-87
2022/06/16 13:50:49;;;;;;;7.32;3.58;;;29.50;53.30;;;;;;5000261;28;20085;-86
2022/06/16 13:53:22;;;;;;;;;;;29.60;54.90;;;;;;4998229;28;20060;-88
2022/06/16 13:55:57;;;;;;;;;;;29.90;54.60;;;;;;5000458;28;19922;-86
2022/06/16 13:58:38;;;;;;;6.85;3.20;;;30.10;52.50;;;;;;5009120;28;19922;-86
2022/06/16 14:01:12;;;;;;;5.15;3.05;;;30.30;53.60;;;;;;5017745;28;20057;-87
2022/06/16 14:04:07;;;;;;;5.13;3.65;;;30.40;51.60;;;;;;4996825;28;20065;-84